createdAt,value
2016-03-07T00:00:23.919Z,3.92
2016-03-07T00:01:23.954Z,3.95
2016-03-07T00:02:23.924Z,3.95
2016-03-07T00:03:23.913Z,3.99
2016-03-07T00:04:23.899Z,3.95
2016-03-07T00:05:23.902Z,3.96
2016-03-07T00:06:23.888Z,3.99
2016-03-07T00:07:23.891Z,3.92
2016-03-07T00:08:23.894Z,4.01
2016-03-07T00:09:23.896Z,3.96
2016-03-07T00:10:23.884Z,3.95
2016-03-07T00:11:23.887Z,3.86
2016-03-07T00:12:23.890Z,3.86
2016-03-07T00:13:23.862Z,3.87
2016-03-07T00:14:23.864Z,3.86
2016-03-07T00:15:23.881Z,3.88
2016-03-07T00:16:23.870Z,3.94
2016-03-07T00:17:23.872Z,3.95
2016-03-07T00:18:23.858Z,3.95
2016-03-07T00:19:23.831Z,3.95
2016-03-07T00:20:23.833Z,3.95
2016-03-07T00:21:23.836Z,3.88
2016-03-07T00:22:23.839Z,3.96
2016-03-07T00:23:23.669Z,3.87
2016-03-07T00:24:23.811Z,3.81
2016-03-07T00:25:23.815Z,3.87
2016-03-07T00:26:23.802Z,3.91
2016-03-07T00:27:23.804Z,3.91
2016-03-07T00:28:23.807Z,3.88
2016-03-07T00:29:24.544Z,3.78
2016-03-07T00:30:23.797Z,3.88
2016-03-07T00:31:23.800Z,3.81
2016-03-07T00:32:23.787Z,3.77
2016-03-07T00:33:23.790Z,3.78
2016-03-07T00:34:23.777Z,3.84
2016-03-07T00:35:23.780Z,3.86
2016-03-07T00:36:23.798Z,3.83
2016-03-07T00:37:23.768Z,3.84
2016-03-07T00:38:23.772Z,3.91
2016-03-07T00:39:23.759Z,3.83
2016-03-07T00:40:23.762Z,3.81
2016-03-07T00:41:23.765Z,3.8
2016-03-07T00:42:23.751Z,3.84
2016-03-07T00:43:23.817Z,3.81
2016-03-07T00:44:23.757Z,3.8
2016-03-07T00:45:23.743Z,3.86
2016-03-07T00:46:23.745Z,3.76
2016-03-07T00:47:23.765Z,3.77
2016-03-07T00:48:23.720Z,3.81
2016-03-07T00:49:23.739Z,3.77
2016-03-07T00:50:23.726Z,3.81
2016-03-07T00:51:23.713Z,3.81
2016-03-07T00:52:23.716Z,3.68
2016-03-07T00:53:23.703Z,3.7
2016-03-07T00:54:23.721Z,3.69
2016-03-07T00:55:23.692Z,3.8
2016-03-07T00:56:23.695Z,3.83
2016-03-07T00:57:23.713Z,3.8
2016-03-07T00:58:23.747Z,3.84
2016-03-07T00:59:23.688Z,3.86
2016-03-07T01:00:23.675Z,3.83
2016-03-07T01:01:23.677Z,3.81
2016-03-07T01:02:23.664Z,3.78
2016-03-07T01:03:23.667Z,3.84
2016-03-07T01:04:23.685Z,3.84
2016-03-07T01:05:23.657Z,3.95
2016-03-07T01:06:23.660Z,3.95
2016-03-07T01:07:23.662Z,3.81
2016-03-07T01:08:23.650Z,3.8
2016-03-07T01:09:23.652Z,3.84
2016-03-07T01:10:23.639Z,3.87
2016-03-07T01:11:23.642Z,3.83
2016-03-07T01:12:23.645Z,3.86
2016-03-07T01:13:23.678Z,3.78
2016-03-07T01:14:23.634Z,3.83
2016-03-07T01:15:23.637Z,3.83
2016-03-07T01:16:23.608Z,3.86
2016-03-07T01:17:23.627Z,3.86
2016-03-07T01:18:23.645Z,3.77
2016-03-07T01:19:23.601Z,3.77
2016-03-07T01:20:23.619Z,3.74
2016-03-07T01:21:23.606Z,3.77
2016-03-07T01:22:23.609Z,3.76
2016-03-07T01:23:23.611Z,3.84
2016-03-07T01:24:23.583Z,3.78
2016-03-07T01:25:23.601Z,3.7
2016-03-07T01:26:23.573Z,3.84
2016-03-07T01:27:23.576Z,3.73
2016-03-07T01:28:23.594Z,3.78
2016-03-07T01:29:23.565Z,3.7
2016-03-07T01:30:23.584Z,3.73
2016-03-07T01:31:23.571Z,3.77
2016-03-07T01:32:23.557Z,3.74
2016-03-07T01:33:23.560Z,3.69
2016-03-07T01:34:23.547Z,3.77
2016-03-07T01:35:23.565Z,3.66
2016-03-07T01:36:23.538Z,3.69
2016-03-07T01:37:23.540Z,3.7
2016-03-07T01:38:23.542Z,3.7
2016-03-07T01:39:23.530Z,3.7
2016-03-07T01:40:23.548Z,3.68
2016-03-07T01:41:23.551Z,3.7
2016-03-07T01:42:23.506Z,3.76
2016-03-07T01:43:23.556Z,3.76
2016-03-07T01:44:23.512Z,3.74
2016-03-07T01:45:23.499Z,3.69
2016-03-07T01:46:23.486Z,3.7
2016-03-07T01:47:23.520Z,3.78
2016-03-07T01:48:23.492Z,3.73
2016-03-07T01:49:23.494Z,3.76
2016-03-07T01:50:23.497Z,3.74
2016-03-07T01:51:23.483Z,3.74
2016-03-07T01:52:23.503Z,3.83
2016-03-07T01:53:23.473Z,3.77
2016-03-07T01:54:23.492Z,3.68
2016-03-07T01:55:23.557Z,3.69
2016-03-07T01:56:23.450Z,3.6
2016-03-07T01:57:23.469Z,3.7
2016-03-07T01:58:23.456Z,3.63
2016-03-07T01:59:23.442Z,3.66
2016-03-07T02:00:23.444Z,3.74
2016-03-07T02:01:23.448Z,3.7
2016-03-07T02:02:23.450Z,3.63
2016-03-07T02:03:23.422Z,3.7
2016-03-07T02:04:23.441Z,3.65
2016-03-07T02:05:23.271Z,3.65
2016-03-07T02:06:23.477Z,3.63
2016-03-07T02:07:23.433Z,3.59
2016-03-07T02:08:23.404Z,3.63
2016-03-07T02:09:23.407Z,3.7
2016-03-07T02:10:23.426Z,3.68
2016-03-07T02:11:23.397Z,3.59
2016-03-07T02:12:23.415Z,3.63
2016-03-07T02:13:23.402Z,3.69
2016-03-07T02:14:23.390Z,3.69
2016-03-07T02:15:23.392Z,3.83
2016-03-07T02:16:23.395Z,3.76
2016-03-07T02:17:23.382Z,3.74
2016-03-07T02:18:23.400Z,3.65
2016-03-07T02:19:23.387Z,3.59
2016-03-07T02:20:23.374Z,3.73
2016-03-07T02:21:23.393Z,3.73
2016-03-07T02:22:23.380Z,3.69
2016-03-07T02:23:23.351Z,3.68
2016-03-07T02:24:23.370Z,3.69
2016-03-07T02:25:23.356Z,3.74
2016-03-07T02:26:23.359Z,3.76
2016-03-07T02:27:23.347Z,3.8
2016-03-07T02:28:23.333Z,3.74
2016-03-07T02:29:23.353Z,3.7
2016-03-07T02:30:23.339Z,3.73
2016-03-07T02:31:23.358Z,3.76
2016-03-07T02:32:23.328Z,3.66
2016-03-07T02:33:23.347Z,3.7
2016-03-07T02:34:23.318Z,3.69
2016-03-07T02:35:23.305Z,3.65
2016-03-07T02:36:23.339Z,3.77
2016-03-07T02:37:23.295Z,3.65
2016-03-07T02:38:23.314Z,3.7
2016-03-07T02:39:23.300Z,3.69
2016-03-07T02:40:23.303Z,3.68
2016-03-07T02:41:23.321Z,3.76
2016-03-07T02:42:23.277Z,3.7
2016-03-07T02:43:23.280Z,3.68
2016-03-07T02:44:23.282Z,3.74
2016-03-07T02:45:23.286Z,3.78
2016-03-07T02:46:23.288Z,3.7
2016-03-07T02:47:23.260Z,3.77
2016-03-07T02:48:23.246Z,3.76
2016-03-07T02:49:23.265Z,3.74
2016-03-07T02:50:23.252Z,3.77
2016-03-07T02:51:23.254Z,3.73
2016-03-07T02:52:23.257Z,3.76
2016-03-07T02:53:23.245Z,3.77
2016-03-07T02:54:23.248Z,3.76
2016-03-07T02:55:23.234Z,3.76
2016-03-07T02:56:23.237Z,3.77
2016-03-07T02:57:23.223Z,3.74
2016-03-07T02:58:23.211Z,3.69
2016-03-07T02:59:23.214Z,3.69
2016-03-07T03:00:23.200Z,3.69
2016-03-07T03:01:23.204Z,3.68
2016-03-07T03:02:23.222Z,3.68
2016-03-07T03:03:23.225Z,3.74
2016-03-07T03:04:23.196Z,3.7
2016-03-07T03:05:23.199Z,3.63
2016-03-07T03:06:23.186Z,3.65
2016-03-07T03:07:23.188Z,3.59
2016-03-07T03:08:23.207Z,3.6
2016-03-07T03:09:23.053Z,3.55
2016-03-07T03:10:23.213Z,3.47
2016-03-07T03:11:23.152Z,3.59
2016-03-07T03:12:23.155Z,3.47
2016-03-07T03:13:23.174Z,3.47
2016-03-07T03:14:23.160Z,3.45
2016-03-07T03:15:23.147Z,3.37
2016-03-07T03:16:23.134Z,3.28
2016-03-07T03:17:23.169Z,3.26
2016-03-07T03:18:23.140Z,3.19
2016-03-07T03:19:23.205Z,3.23
2016-03-07T03:20:23.207Z,3.13
2016-03-07T03:21:23.132Z,3.14
2016-03-07T03:22:23.120Z,3.08
2016-03-07T03:23:23.137Z,2.92
2016-03-07T03:24:23.109Z,2.85
2016-03-07T03:25:23.096Z,3
2016-03-07T03:26:22.959Z,2.9
2016-03-07T03:27:23.086Z,2.9
2016-03-07T03:28:23.089Z,2.83
2016-03-07T03:29:23.076Z,2.89
2016-03-07T03:30:23.078Z,2.82
2016-03-07T03:31:23.065Z,2.69
2016-03-07T03:32:23.083Z,2.71
2016-03-07T03:33:23.070Z,2.75
2016-03-07T03:34:23.073Z,2.71
2016-03-07T03:35:23.170Z,2.72
2016-03-07T03:36:23.048Z,2.67
2016-03-07T03:37:23.035Z,2.64
2016-03-07T03:38:23.069Z,2.6
2016-03-07T03:39:23.040Z,2.51
2016-03-07T03:40:23.027Z,2.49
2016-03-07T03:41:23.030Z,2.51
2016-03-07T03:42:23.017Z,2.44
2016-03-07T03:43:23.019Z,2.39
2016-03-07T03:44:23.007Z,2.39
2016-03-07T03:45:23.010Z,2.42
2016-03-07T03:46:22.996Z,2.39
2016-03-07T03:47:22.999Z,2.29
2016-03-07T03:48:23.001Z,2.22
2016-03-07T03:49:22.988Z,2.14
2016-03-07T03:50:22.976Z,2.15
2016-03-07T03:51:22.979Z,2.15
2016-03-07T03:52:22.981Z,2.13
2016-03-07T03:53:22.968Z,2.2
2016-03-07T03:54:22.955Z,2.07
2016-03-07T03:55:22.958Z,2.14
2016-03-07T03:56:22.961Z,2.15
2016-03-07T03:57:22.948Z,2.08
2016-03-07T03:58:22.950Z,2.11
2016-03-07T03:59:22.954Z,2.1
2016-03-07T04:00:22.925Z,2.08
2016-03-07T04:01:22.943Z,1.99
2016-03-07T04:02:22.930Z,2.02
2016-03-07T04:03:22.933Z,2.06
2016-03-07T04:04:22.903Z,2.02
2016-03-07T04:05:22.907Z,1.99
2016-03-07T04:06:22.925Z,1.89
2016-03-07T04:07:22.897Z,1.87
2016-03-07T04:08:22.883Z,1.89
2016-03-07T04:09:22.886Z,1.94
2016-03-07T04:10:22.889Z,1.87
2016-03-07T04:11:22.923Z,1.8
2016-03-07T04:12:22.863Z,1.88
2016-03-07T04:13:22.866Z,1.85
2016-03-07T04:14:22.853Z,1.85
2016-03-07T04:15:22.841Z,1.85
2016-03-07T04:16:22.843Z,1.87
2016-03-07T04:17:22.829Z,1.73
2016-03-07T04:18:22.832Z,1.87
2016-03-07T04:19:22.835Z,1.88
2016-03-07T04:20:22.822Z,1.8
2016-03-07T04:21:22.809Z,1.85
2016-03-07T04:22:22.812Z,1.91
2016-03-07T04:23:22.798Z,1.92
2016-03-07T04:24:22.801Z,1.85
2016-03-07T04:25:22.804Z,1.97
2016-03-07T04:26:22.792Z,1.89
2016-03-07T04:27:22.778Z,1.97
2016-03-07T04:28:22.813Z,1.88
2016-03-07T04:29:22.768Z,1.89
2016-03-07T04:30:22.803Z,1.91
2016-03-07T04:31:22.758Z,1.97
2016-03-07T04:32:22.761Z,1.91
2016-03-07T04:33:22.778Z,1.92
2016-03-07T04:34:22.751Z,1.92
2016-03-07T04:35:22.633Z,1.94
2016-03-07T04:36:22.728Z,1.95
2016-03-07T04:37:22.730Z,2
2016-03-07T04:38:22.734Z,1.94
2016-03-07T04:39:22.720Z,2
2016-03-07T04:40:22.739Z,1.92
2016-03-07T04:41:22.713Z,1.92
2016-03-07T04:42:22.701Z,1.91
2016-03-07T04:43:22.734Z,1.92
2016-03-07T04:44:22.597Z,2.02
2016-03-07T04:45:22.724Z,1.92
2016-03-07T04:46:22.681Z,1.87
2016-03-07T04:47:22.683Z,1.89
2016-03-07T04:48:22.686Z,1.91
2016-03-07T04:49:22.657Z,1.87
2016-03-07T04:50:22.676Z,1.88
2016-03-07T04:51:22.662Z,1.87
2016-03-07T04:52:22.650Z,1.84
2016-03-07T04:53:22.637Z,1.89
2016-03-07T04:54:22.686Z,1.8
2016-03-07T04:55:22.642Z,1.87
2016-03-07T04:56:22.628Z,1.87
2016-03-07T04:57:22.647Z,1.88
2016-03-07T04:58:22.603Z,1.85
2016-03-07T04:59:22.606Z,1.89
2016-03-07T05:00:22.593Z,1.92
2016-03-07T05:01:22.611Z,1.89
2016-03-07T05:02:22.599Z,1.94
2016-03-07T05:03:22.585Z,2.06
2016-03-07T05:04:22.588Z,2.06
2016-03-07T05:05:22.574Z,2.08
2016-03-07T05:06:22.585Z,2.13
2016-03-07T05:07:22.588Z,2.17
2016-03-07T05:08:22.560Z,2.13
2016-03-07T05:09:22.547Z,2.15
2016-03-07T05:10:22.549Z,2.13
2016-03-07T05:11:22.537Z,2.17
2016-03-07T05:12:22.540Z,2.14
2016-03-07T05:13:22.557Z,2.17
2016-03-07T05:14:22.529Z,2.26
2016-03-07T05:15:22.515Z,2.22
2016-03-07T05:16:22.518Z,2.25
2016-03-07T05:17:22.553Z,2.33
2016-03-07T05:18:22.509Z,2.32
2016-03-07T05:19:22.495Z,2.42
2016-03-07T05:20:22.498Z,2.28
2016-03-07T05:21:22.484Z,2.31
2016-03-07T05:22:22.487Z,2.38
2016-03-07T05:23:22.537Z,2.35
2016-03-07T05:24:22.493Z,2.31
2016-03-07T05:25:22.495Z,2.35
2016-03-07T05:26:22.545Z,2.36
2016-03-07T05:27:22.455Z,2.33
2016-03-07T05:28:22.458Z,2.36
2016-03-07T05:29:22.475Z,2.32
2016-03-07T05:30:22.447Z,2.39
2016-03-07T05:31:22.465Z,2.38
2016-03-07T05:32:22.453Z,2.39
2016-03-07T05:33:22.439Z,2.43
2016-03-07T05:34:22.427Z,2.39
2016-03-07T05:35:22.444Z,2.42
2016-03-07T05:36:22.432Z,2.54
2016-03-07T05:37:22.419Z,2.5
2016-03-07T05:38:22.406Z,2.43
2016-03-07T05:39:22.408Z,2.53
2016-03-07T05:40:22.427Z,2.54
2016-03-07T05:41:22.399Z,2.54
2016-03-07T05:42:22.385Z,2.53
2016-03-07T05:43:22.388Z,2.54
2016-03-07T05:44:22.406Z,2.61
2016-03-07T05:45:22.440Z,2.57
2016-03-07T05:46:22.365Z,2.62
2016-03-07T05:47:22.368Z,2.61
2016-03-07T05:48:22.354Z,2.53
2016-03-07T05:49:22.373Z,2.57
2016-03-07T05:50:22.359Z,2.6
2016-03-07T05:51:22.332Z,2.62
2016-03-07T05:52:22.334Z,2.6
2016-03-07T05:53:22.337Z,2.69
2016-03-07T05:54:22.355Z,2.6
2016-03-07T05:55:22.327Z,2.61
2016-03-07T05:56:22.329Z,2.69
2016-03-07T05:57:22.332Z,2.68
2016-03-07T05:58:22.319Z,2.68
2016-03-07T05:59:22.400Z,2.68
2016-03-07T06:00:22.325Z,2.71
2016-03-07T06:01:22.312Z,2.72
2016-03-07T06:02:22.283Z,2.68
2016-03-07T06:03:22.286Z,2.67
2016-03-07T06:04:22.272Z,2.6
2016-03-07T06:05:22.291Z,2.72
2016-03-07T06:06:22.278Z,2.67
2016-03-07T06:07:22.265Z,2.62
2016-03-07T06:08:22.268Z,2.68
2016-03-07T06:09:22.271Z,2.62
2016-03-07T06:10:22.258Z,2.57
2016-03-07T06:11:22.260Z,2.64
2016-03-07T06:12:22.247Z,2.67
2016-03-07T06:13:22.249Z,2.68
2016-03-07T06:14:22.127Z,2.65
2016-03-07T06:15:22.240Z,2.64
2016-03-07T06:16:22.243Z,2.61
2016-03-07T06:17:22.245Z,2.62
2016-03-07T06:18:22.232Z,2.57
2016-03-07T06:19:22.219Z,2.64
2016-03-07T06:20:22.238Z,2.64
2016-03-07T06:21:22.225Z,2.61
2016-03-07T06:22:22.196Z,2.6
2016-03-07T06:23:22.198Z,2.6
2016-03-07T06:24:22.218Z,2.57
2016-03-07T06:25:22.189Z,2.54
2016-03-07T06:26:22.192Z,2.64
2016-03-07T06:27:22.194Z,2.61
2016-03-07T06:28:22.009Z,2.6
2016-03-07T06:29:22.231Z,2.67
2016-03-07T06:30:22.187Z,2.71
2016-03-07T06:31:22.173Z,2.72
2016-03-07T06:32:22.161Z,2.67
2016-03-07T06:33:22.163Z,2.69
2016-03-07T06:34:22.197Z,2.77
2016-03-07T06:35:22.247Z,2.71
2016-03-07T06:36:22.155Z,2.83
2016-03-07T06:37:22.143Z,2.77
2016-03-07T06:38:22.130Z,2.89
2016-03-07T06:39:22.133Z,2.85
2016-03-07T06:40:22.135Z,2.87
2016-03-07T06:41:22.107Z,3.04
2016-03-07T06:42:22.124Z,3.16
2016-03-07T06:43:22.128Z,3.08
2016-03-07T06:44:22.115Z,3.1
2016-03-07T06:45:22.118Z,3.26
2016-03-07T06:46:22.088Z,3.21
2016-03-07T06:47:22.107Z,3.19
2016-03-07T06:48:22.109Z,3.22
2016-03-07T06:49:22.082Z,3.25
2016-03-07T06:50:22.068Z,3.31
2016-03-07T06:51:22.071Z,3.23
2016-03-07T06:52:22.090Z,3.28
2016-03-07T06:53:22.077Z,3.21
2016-03-07T06:54:22.064Z,3.22
2016-03-07T06:55:22.082Z,3.28
2016-03-07T06:56:22.053Z,3.23
2016-03-07T06:57:22.051Z,3.31
2016-03-07T06:58:22.039Z,3.31
2016-03-07T06:59:21.996Z,3.36
2016-03-07T07:00:21.984Z,3.44
2016-03-07T07:01:21.972Z,3.5
2016-03-07T07:02:21.948Z,3.45
2016-03-07T07:03:21.945Z,3.62
2016-03-07T07:04:21.942Z,3.59
2016-03-07T07:05:21.924Z,3.62
2016-03-07T07:06:21.920Z,3.68
2016-03-07T07:07:21.919Z,3.65
2016-03-07T07:08:21.889Z,3.65
2016-03-07T07:09:21.906Z,3.74
2016-03-07T07:10:21.891Z,3.74
2016-03-07T07:11:21.877Z,3.73
2016-03-07T07:12:21.878Z,3.83
2016-03-07T07:13:21.880Z,3.8
2016-03-07T07:14:21.882Z,3.8
2016-03-07T07:15:21.885Z,3.83
2016-03-07T07:16:21.871Z,3.86
2016-03-07T07:17:21.862Z,3.86
2016-03-07T07:18:21.864Z,3.86
2016-03-07T07:19:21.852Z,3.81
2016-03-07T07:20:21.683Z,3.84
2016-03-07T07:21:21.841Z,3.99
2016-03-07T07:22:21.843Z,4.01
2016-03-07T07:23:21.845Z,4.01
2016-03-07T07:24:21.833Z,4.12
2016-03-07T07:25:21.820Z,4.2
2016-03-07T07:26:21.823Z,4.24
2016-03-07T07:27:21.825Z,4.22
2016-03-07T07:28:21.843Z,4.34
2016-03-07T07:29:21.814Z,4.4
2016-03-07T07:30:21.817Z,4.42
2016-03-07T07:31:21.804Z,4.49
2016-03-07T07:32:21.651Z,4.52
2016-03-07T07:33:21.795Z,4.44
2016-03-07T07:34:21.797Z,4.45
2016-03-07T07:35:21.800Z,4.44
2016-03-07T07:36:21.787Z,4.48
2016-03-07T07:37:21.805Z,4.6
2016-03-07T07:38:21.792Z,5.07
2016-03-07T07:39:21.780Z,5.47
2016-03-07T07:40:21.828Z,6.08
2016-03-07T07:41:21.785Z,6.54
2016-03-07T07:42:21.771Z,7.11
2016-03-07T07:43:21.775Z,7.51
2016-03-07T07:44:21.777Z,7.9
2016-03-07T07:45:21.780Z,8.09
2016-03-07T07:46:21.782Z,8.24
2016-03-07T07:47:21.786Z,8.27
2016-03-07T07:48:21.772Z,8.28
2016-03-07T07:49:21.775Z,8.26
2016-03-07T07:50:21.793Z,8.38
2016-03-07T07:51:21.780Z,8.58
2016-03-07T07:52:21.782Z,8.87
2016-03-07T07:53:21.785Z,9.18
2016-03-07T07:54:21.772Z,9.51
2016-03-07T07:55:21.775Z,9.86
2016-03-07T07:56:21.793Z,10.09
2016-03-07T07:57:21.781Z,10.49
2016-03-07T07:58:21.784Z,10.86
2016-03-07T07:59:21.801Z,11.15
2016-03-07T08:00:21.789Z,11.43
2016-03-07T08:01:21.792Z,11.5
2016-03-07T08:02:21.795Z,11.41
2016-03-07T08:03:21.812Z,11.33
2016-03-07T08:04:21.847Z,11.47
2016-03-07T08:05:21.864Z,11.81
2016-03-07T08:06:21.820Z,12.18
2016-03-07T08:07:21.838Z,12.31
2016-03-07T08:08:21.825Z,12.36
2016-03-07T08:09:21.828Z,12.32
2016-03-07T08:10:21.831Z,12.32
2016-03-07T08:11:21.849Z,12.39
2016-03-07T08:12:21.853Z,12.57
2016-03-07T08:13:21.855Z,12.73
2016-03-07T08:14:21.858Z,12.79
2016-03-07T08:15:21.861Z,12.76
2016-03-07T08:16:21.863Z,12.6
2016-03-07T08:17:21.866Z,12.37
2016-03-07T08:18:21.868Z,12.21
2016-03-07T08:19:21.902Z,12.35
2016-03-07T08:20:21.890Z,12.24
2016-03-07T08:21:21.907Z,11.8
2016-03-07T08:22:21.910Z,11.27
2016-03-07T08:23:21.912Z,10.59
2016-03-07T08:24:21.915Z,9.99
2016-03-07T08:25:21.918Z,9.48
2016-03-07T08:26:21.937Z,8.78
2016-03-07T08:27:21.924Z,8.28
2016-03-07T08:28:21.927Z,7.8
2016-03-07T08:29:21.960Z,7.32
2016-03-07T08:30:21.963Z,6.89
2016-03-07T08:31:21.950Z,6.59
2016-03-07T08:32:21.953Z,6.41
2016-03-07T08:33:21.956Z,6.17
2016-03-07T08:34:21.973Z,6.08
2016-03-07T08:35:21.961Z,6.05
2016-03-07T08:36:21.979Z,5.99
2016-03-07T08:37:21.997Z,5.91
2016-03-07T08:38:21.984Z,5.97
2016-03-07T08:39:21.972Z,5.87
2016-03-07T08:40:21.818Z,5.98
2016-03-07T08:41:21.978Z,6.02
2016-03-07T08:42:21.980Z,6.14
2016-03-07T08:43:21.983Z,6.26
2016-03-07T08:44:22.000Z,6.41
2016-03-07T08:45:21.988Z,6.42
2016-03-07T08:46:21.975Z,6.45
2016-03-07T08:47:21.978Z,6.52
2016-03-07T08:48:21.980Z,6.57
2016-03-07T08:49:21.982Z,6.62
2016-03-07T08:50:21.971Z,6.64
2016-03-07T08:51:21.988Z,6.69
2016-03-07T08:52:21.976Z,6.82
2016-03-07T08:53:21.993Z,6.87
2016-03-07T08:54:21.981Z,7
2016-03-07T08:55:21.999Z,7.14
2016-03-07T08:56:21.986Z,7.15
2016-03-07T08:57:22.004Z,7.25
2016-03-07T08:58:21.976Z,7.33
2016-03-07T08:59:21.995Z,7.48
2016-03-07T09:00:21.981Z,7.54
2016-03-07T09:01:22.015Z,7.6
2016-03-07T09:02:21.986Z,7.58
2016-03-07T09:03:21.990Z,7.58
2016-03-07T09:04:22.601Z,7.72
2016-03-07T09:05:21.995Z,7.82
2016-03-07T09:06:21.998Z,7.75
2016-03-07T09:07:22.000Z,7.76
2016-03-07T09:08:21.987Z,7.72
2016-03-07T09:09:21.989Z,7.67
2016-03-07T09:10:21.992Z,7.54
2016-03-07T09:11:22.011Z,7.5
2016-03-07T09:12:22.248Z,7.51
2016-03-07T09:13:22.000Z,7.54
2016-03-07T09:14:21.988Z,7.47
2016-03-07T09:15:22.006Z,7.43
2016-03-07T09:16:21.993Z,7.56
2016-03-07T09:17:22.011Z,7.43
2016-03-07T09:18:21.858Z,7.48
2016-03-07T09:19:21.861Z,7.38
2016-03-07T09:20:22.066Z,7.32
2016-03-07T09:21:21.991Z,7.31
2016-03-07T09:22:22.010Z,7.2
2016-03-07T09:23:21.997Z,7.05
2016-03-07T09:24:21.998Z,7.05
2016-03-07T09:25:22.001Z,6.97
2016-03-07T09:26:22.004Z,6.99
2016-03-07T09:27:21.991Z,6.88
2016-03-07T09:28:22.009Z,6.77
2016-03-07T09:29:22.028Z,6.67
2016-03-07T09:30:22.031Z,6.7
2016-03-07T09:31:22.002Z,6.66
2016-03-07T09:32:22.004Z,6.62
2016-03-07T09:33:22.007Z,6.57
2016-03-07T09:34:22.010Z,6.49
2016-03-07T09:35:22.013Z,6.51
2016-03-07T09:36:22.015Z,6.42
2016-03-07T09:37:22.002Z,6.52
2016-03-07T09:38:22.005Z,6.48
2016-03-07T09:39:22.008Z,6.41
2016-03-07T09:40:22.026Z,6.33
2016-03-07T09:41:21.998Z,6.28
2016-03-07T09:42:22.001Z,6.26
2016-03-07T09:43:22.034Z,6.3
2016-03-07T09:44:21.991Z,6.31
2016-03-07T09:45:21.994Z,6.39
2016-03-07T09:46:21.996Z,6.38
2016-03-07T09:47:21.999Z,6.42
2016-03-07T09:48:22.001Z,6.44
2016-03-07T09:49:22.019Z,6.52
2016-03-07T09:50:21.990Z,6.41
2016-03-07T09:51:22.009Z,6.39
2016-03-07T09:52:22.012Z,6.36
2016-03-07T09:53:21.999Z,6.44
2016-03-07T09:54:22.002Z,6.45
2016-03-07T09:55:22.004Z,6.45
2016-03-07T09:56:21.991Z,6.35
2016-03-07T09:57:21.994Z,6.36
2016-03-07T09:58:21.997Z,6.26
2016-03-07T09:59:21.999Z,6.22
2016-03-07T10:00:21.987Z,6.24
2016-03-07T10:01:21.990Z,6.19
2016-03-07T10:02:21.992Z,6.14
2016-03-07T10:03:21.994Z,6.12
2016-03-07T10:04:21.997Z,6.11
2016-03-07T10:05:22.015Z,5.99
2016-03-07T10:06:22.004Z,5.98
2016-03-07T10:07:21.990Z,5.98
2016-03-07T10:08:21.977Z,5.97
2016-03-07T10:09:21.980Z,5.98
2016-03-07T10:10:21.998Z,6.01
2016-03-07T10:11:21.985Z,6.02
2016-03-07T10:12:22.004Z,6.05
2016-03-07T10:13:21.975Z,6.04
2016-03-07T10:14:22.181Z,6.11
2016-03-07T10:15:21.981Z,6.05
2016-03-07T10:16:21.968Z,6.08
2016-03-07T10:17:21.987Z,5.97
2016-03-07T10:18:21.974Z,5.9
2016-03-07T10:19:21.962Z,5.84
2016-03-07T10:20:21.980Z,5.82
2016-03-07T10:21:21.967Z,5.76
2016-03-07T10:22:21.970Z,5.69
2016-03-07T10:23:21.972Z,5.59
2016-03-07T10:24:21.819Z,5.57
2016-03-07T10:25:21.978Z,5.53
2016-03-07T10:26:21.965Z,5.47
2016-03-07T10:27:21.951Z,5.56
2016-03-07T10:28:21.986Z,5.56
2016-03-07T10:29:21.957Z,5.56
2016-03-07T10:30:21.820Z,5.56
2016-03-07T10:31:21.790Z,5.47
2016-03-07T10:32:21.965Z,5.43
2016-03-07T10:33:21.953Z,5.46
2016-03-07T10:34:21.970Z,5.53
2016-03-07T10:35:21.958Z,5.5
2016-03-07T10:36:21.960Z,5.59
2016-03-07T10:37:21.931Z,5.64
2016-03-07T10:38:21.981Z,5.71
2016-03-07T10:39:21.953Z,5.71
2016-03-07T10:40:22.018Z,5.76
2016-03-07T10:41:21.927Z,5.82
2016-03-07T10:42:21.930Z,5.91
2016-03-07T10:43:21.932Z,5.99
2016-03-07T10:44:21.935Z,6.07
2016-03-07T10:45:21.938Z,6.11
2016-03-07T10:46:21.925Z,6.07
2016-03-07T10:47:21.943Z,6.12
2016-03-07T10:48:21.915Z,6.17
2016-03-07T10:49:21.918Z,6.24
2016-03-07T10:50:21.920Z,6.24
2016-03-07T10:51:21.923Z,6.27
2016-03-07T10:52:21.910Z,6.22
2016-03-07T10:53:21.928Z,6.2
2016-03-07T10:54:21.915Z,5.99
2016-03-07T10:55:21.933Z,6.01
2016-03-07T10:56:21.921Z,6.01
2016-03-07T10:57:21.923Z,5.91
2016-03-07T10:58:21.910Z,5.82
2016-03-07T10:59:21.928Z,5.84
2016-03-07T11:00:22.472Z,5.86
2016-03-07T11:01:21.770Z,5.82
2016-03-07T11:02:22.397Z,5.93
2016-03-07T11:03:25.775Z,5.93
2016-03-07T11:04:21.902Z,5.8
2016-03-07T11:05:21.889Z,5.76
2016-03-07T11:06:21.907Z,5.69
2016-03-07T11:07:21.926Z,5.68
2016-03-07T11:08:21.913Z,5.72
2016-03-07T11:09:21.947Z,5.82
2016-03-07T11:10:21.903Z,5.84
2016-03-07T11:11:21.905Z,5.99
2016-03-07T11:12:21.893Z,6.16
2016-03-07T11:13:21.880Z,6.08
2016-03-07T11:14:21.898Z,6.16
2016-03-07T11:15:21.962Z,6.11
2016-03-07T11:16:21.887Z,6.01
2016-03-07T11:17:21.890Z,5.94
2016-03-07T11:18:21.877Z,5.89
2016-03-07T11:19:21.926Z,5.9
2016-03-07T11:20:21.867Z,5.93
2016-03-07T11:21:21.870Z,5.94
2016-03-07T11:22:21.887Z,5.99
2016-03-07T11:23:21.860Z,6.14
2016-03-07T11:24:21.878Z,6.11
2016-03-07T11:25:21.880Z,6.28
2016-03-07T11:26:21.867Z,6.22
2016-03-07T11:27:21.870Z,6.44
2016-03-07T11:28:21.872Z,6.49
2016-03-07T11:29:22.344Z,6.46
2016-03-07T11:30:21.878Z,6.51
2016-03-07T11:31:21.850Z,6.49
2016-03-07T11:32:21.852Z,6.49
2016-03-07T11:33:21.855Z,6.46
2016-03-07T11:34:21.874Z,6.45
2016-03-07T11:35:21.844Z,6.31
2016-03-07T11:36:21.879Z,6.26
2016-03-07T11:37:21.850Z,6.3
2016-03-07T11:38:21.853Z,6.2
2016-03-07T11:39:24.871Z,6.17
2016-03-07T11:40:21.842Z,6.17
2016-03-07T11:41:21.846Z,6.3
2016-03-07T11:42:21.863Z,6.31
2016-03-07T11:43:21.101Z,6.49
2016-03-07T11:44:21.884Z,6.49
2016-03-07T11:45:21.919Z,6.7
2016-03-07T11:46:21.843Z,6.77
2016-03-07T11:47:21.861Z,6.77
2016-03-07T11:48:21.833Z,6.84
2016-03-07T11:49:21.851Z,7.03
2016-03-07T11:50:21.900Z,7.06
2016-03-07T11:51:21.841Z,7.06
2016-03-07T11:52:21.829Z,7.13
2016-03-07T11:53:21.831Z,7.13
2016-03-07T11:54:21.833Z,7.17
2016-03-07T11:55:21.898Z,7.11
2016-03-07T11:56:21.823Z,7.1
2016-03-07T11:57:21.825Z,7.03
2016-03-07T11:58:21.828Z,6.92
2016-03-07T11:59:21.831Z,6.78
2016-03-07T12:00:21.865Z,6.64
2016-03-07T12:01:21.837Z,6.67
2016-03-07T12:02:21.824Z,6.49
2016-03-07T12:03:21.842Z,6.44
2016-03-07T12:04:21.813Z,6.51
2016-03-07T12:05:21.847Z,6.48
2016-03-07T12:06:21.822Z,6.42
2016-03-07T12:07:21.713Z,6.48
2016-03-07T12:08:21.824Z,6.42
2016-03-07T12:09:21.810Z,6.6
2016-03-07T12:10:21.877Z,6.45
2016-03-07T12:11:21.832Z,6.57
2016-03-07T12:12:21.818Z,6.62
2016-03-07T12:13:21.821Z,6.74
2016-03-07T12:14:21.824Z,6.84
2016-03-07T12:15:21.842Z,6.77
2016-03-07T12:16:21.814Z,6.77
2016-03-07T12:17:21.802Z,6.74
2016-03-07T12:18:21.820Z,6.7
2016-03-07T12:19:21.806Z,6.63
2016-03-07T12:20:21.856Z,6.52
2016-03-07T12:21:21.828Z,6.41
2016-03-07T12:22:21.799Z,6.44
2016-03-07T12:23:21.801Z,6.39
2016-03-07T12:24:21.804Z,6.22
2016-03-07T12:25:21.807Z,6.35
2016-03-07T12:26:21.809Z,6.26
2016-03-07T12:27:21.828Z,6.12
2016-03-07T12:28:21.800Z,6.16
2016-03-07T12:29:21.803Z,6.17
2016-03-07T12:30:21.806Z,6.2
2016-03-07T12:31:21.808Z,6.22
2016-03-07T12:32:21.811Z,6.26
2016-03-07T12:33:21.797Z,6.41
2016-03-07T12:34:21.785Z,6.44
2016-03-07T12:35:21.803Z,6.52
2016-03-07T12:36:21.805Z,6.48
2016-03-07T12:37:21.808Z,6.46
2016-03-07T12:38:21.811Z,6.46
2016-03-07T12:39:21.798Z,6.51
2016-03-07T12:40:21.801Z,6.6
2016-03-07T12:41:21.804Z,6.78
2016-03-07T12:42:21.822Z,6.84
2016-03-07T12:43:21.824Z,6.88
2016-03-07T12:44:21.780Z,7.05
2016-03-07T12:45:21.783Z,7.03
2016-03-07T12:46:21.801Z,6.93
2016-03-07T12:47:21.788Z,6.87
2016-03-07T12:48:21.775Z,6.96
2016-03-07T12:49:21.872Z,6.93
2016-03-07T12:50:21.781Z,6.92
2016-03-07T12:51:21.798Z,6.99
2016-03-07T12:52:21.771Z,6.99
2016-03-07T12:53:21.789Z,7.05
2016-03-07T12:54:21.775Z,7.11
2016-03-07T12:55:21.795Z,6.84
2016-03-07T12:56:21.797Z,6.84
2016-03-07T12:57:21.784Z,6.7
2016-03-07T12:58:21.786Z,6.64
2016-03-07T12:59:21.773Z,6.7
2016-03-07T13:00:21.901Z,6.67
2016-03-07T13:01:21.778Z,6.72
2016-03-07T13:02:21.781Z,6.59
2016-03-07T13:03:21.784Z,6.49
2016-03-07T13:04:21.630Z,6.45
2016-03-07T13:05:21.774Z,6.48
2016-03-07T13:06:21.777Z,6.56
2016-03-07T13:07:21.779Z,6.54
2016-03-07T13:08:21.782Z,6.62
2016-03-07T13:09:21.769Z,6.48
2016-03-07T13:10:21.787Z,6.72
2016-03-07T13:11:21.790Z,6.67
2016-03-07T13:12:21.793Z,6.69
2016-03-07T13:13:21.780Z,6.63
2016-03-07T13:14:21.798Z,6.56
2016-03-07T13:15:21.629Z,6.63
2016-03-07T13:16:21.788Z,6.74
2016-03-07T13:17:21.775Z,6.63
2016-03-07T13:18:21.793Z,6.62
2016-03-07T13:19:21.781Z,6.64
2016-03-07T13:20:21.799Z,6.67